Time;durP1;ratioP1;P1;durP2;ratioP2;P2;SDS_P1;SDS_P2;PMS_P1;PMS_P2;Temp;Humidity;BMP_temperature;BMP_pressure;BME280_temperature;BME280_humidity;BME280_pressure;Samples;Min_cycle;Max_cycle;Signal;HPM_P1;HPM_P2
2023/01/19 00:01:50;;;;;;;12.33;9.07;;;;;;;;;;5042928;28;20826;-43
2023/01/19 00:04:16;;;;;;;12.73;8.40;;;;;;;;;;5049518;28;20827;-43
2023/01/19 00:06:42;;;;;;;10.85;9.25;;;;;;;;;;5052593;28;20867;-43
2023/01/19 00:09:08;;;;;;;12.50;10.07;;;;;;;;;;5054755;28;20167;-43
2023/01/19 00:11:34;;;;;;;17.50;9.40;;;;;;;;;;5050302;28;20406;-44
2023/01/19 00:14:00;;;;;;;14.40;10.38;;;;;;;;;;5054156;28;20465;-44
2023/01/19 00:16:26;;;;;;;14.77;10.67;;;;;;;;;;5046681;28;20226;-47
2023/01/19 00:18:52;;;;;;;13.48;8.63;;;;;;;;;;5053132;28;20449;-43
2023/01/19 00:21:20;;;;;;;14.52;10.05;;;;;;;;;;5054718;28;20256;-43
2023/01/19 00:23:46;;;;;;;14.82;9.57;;;;;;;;;;5049758;28;20278;-42
2023/01/19 00:26:12;;;;;;;14.93;9.52;;;;;;;;;;5054336;28;20195;-43
2023/01/19 00:28:38;;;;;;;15.05;9.77;;;;;;;;;;5054062;28;20525;-44
2023/01/19 00:31:04;;;;;;;18.00;9.40;;;;;;;;;;5054510;28;20197;-43
2023/01/19 00:33:30;;;;;;;27.27;9.50;;;;;;;;;;5053715;28;20430;-43
2023/01/19 00:35:56;;;;;;;11.97;9.20;;;;;;;;;;5051822;28;20412;-43
2023/01/19 00:38:22;;;;;;;13.63;8.57;;;;;;;;;;5053797;28;20496;-43
2023/01/19 00:40:48;;;;;;;13.00;9.35;;;;;;;;;;5048282;28;20410;-44
2023/01/19 00:43:14;;;;;;;12.13;9.23;;;;;;;;;;5053652;28;20205;-46
2023/01/19 00:45:40;;;;;;;10.97;9.07;;;;;;;;;;5053652;28;20171;-43
2023/01/19 00:48:07;;;;;;;15.98;10.07;;;;;;;;;;5045646;28;20405;-44
2023/01/19 00:50:33;;;;;;;15.07;10.32;;;;;;;;;;5053699;28;20183;-45
2023/01/19 00:53:00;;;;;;;12.32;9.88;;;;;;;;;;5049568;28;20210;-44
2023/01/19 00:55:27;;;;;;;13.50;9.77;;;;;;;;;;5053733;28;20240;-43
2023/01/19 00:57:53;;;;;;;12.85;10.50;;;;;;;;;;5048372;28;20190;-45
2023/01/19 01:00:20;;;;;;;12.25;8.85;;;;;;;;;;5052910;28;20406;-42
2023/01/19 01:02:46;;;;;;;13.80;9.18;;;;;;;;;;5053368;28;20199;-45
2023/01/19 01:05:12;;;;;;;11.02;9.23;;;;;;;;;;5053938;28;20673;-44
2023/01/19 01:07:43;;;;;;;13.52;9.50;;;;;;;;;;5049593;28;20175;-45
2023/01/19 01:10:17;;;;;;;12.10;8.85;;;;;;;;;;5051117;28;20212;-43
2023/01/19 01:12:43;;;;;;;19.35;10.30;;;;;;;;;;5045612;28;20247;-44
2023/01/19 01:15:10;;;;;;;16.95;10.25;;;;;;;;;;5052956;28;20182;-44
2023/01/19 01:17:36;;;;;;;14.60;10.35;;;;;;;;;;5052780;28;20199;-43
2023/01/19 01:20:03;;;;;;;14.57;9.65;;;;;;;;;;5049387;28;20665;-43
2023/01/19 01:22:29;;;;;;;16.02;10.32;;;;;;;;;;5052957;28;20712;-44
2023/01/19 01:24:55;;;;;;;14.20;8.65;;;;;;;;;;5053010;28;20305;-44
2023/01/19 01:27:21;;;;;;;13.15;9.88;;;;;;;;;;5052953;28;20532;-44
2023/01/19 01:29:47;;;;;;;17.40;9.73;;;;;;;;;;5052766;28;20662;-46
2023/01/19 01:32:16;;;;;;;13.27;8.60;;;;;;;;;;5052884;28;20183;-43
2023/01/19 01:34:42;;;;;;;13.48;9.50;;;;;;;;;;5052980;28;20495;-46
2023/01/19 01:37:08;;;;;;;13.43;9.75;;;;;;;;;;5053022;28;20252;-44
2023/01/19 01:39:35;;;;;;;16.55;10.70;;;;;;;;;;5052753;28;20635;-45
2023/01/19 01:42:01;;;;;;;11.00;9.13;;;;;;;;;;5052545;28;20559;-50
2023/01/19 01:44:50;;;;;;;12.27;9.10;;;;;;;;;;5052818;28;20206;-48
2023/01/19 01:47:18;;;;;;;17.80;10.00;;;;;;;;;;5045849;28;20167;-43
2023/01/19 01:49:44;;;;;;;14.40;10.27;;;;;;;;;;5052667;28;20175;-42
2023/01/19 01:52:11;;;;;;;12.63;9.25;;;;;;;;;;5052284;28;20187;-43
2023/01/19 01:54:37;;;;;;;12.88;8.85;;;;;;;;;;5045515;28;20202;-46
2023/01/19 01:57:05;;;;;;;17.53;8.97;;;;;;;;;;5052187;28;20201;-43
2023/01/19 01:59:39;;;;;;;11.55;9.13;;;;;;;;;;5052433;28;20416;-43
2023/01/19 02:04:56;;;;;;;17.75;10.95;;;;;;;;;;5051754;28;20270;-44
2023/01/19 02:13:16;;;;;;;15.90;10.15;;;;;;;;;;5042035;28;20221;-44
2023/01/19 02:15:42;;;;;;;15.13;10.48;;;;;;;;;;5052177;28;20282;-44
2023/01/19 02:18:08;;;;;;;19.60;9.50;;;;;;;;;;5051281;28;20293;-43
2023/01/19 02:20:36;;;;;;;16.10;9.93;;;;;;;;;;5047730;28;20397;-44
2023/01/19 02:23:03;;;;;;;14.63;10.38;;;;;;;;;;5051615;28;20225;-43
2023/01/19 02:25:29;;;;;;;18.58;10.05;;;;;;;;;;5052076;28;20181;-44
2023/01/19 02:27:56;;;;;;;16.60;9.53;;;;;;;;;;5050316;28;20183;-43
2023/01/19 02:30:22;;;;;;;15.25;10.27;;;;;;;;;;5051140;28;20508;-42
2023/01/19 02:32:48;;;;;;;13.80;9.50;;;;;;;;;;5046415;28;20237;-44
2023/01/19 02:35:14;;;;;;;15.02;9.05;;;;;;;;;;5051819;28;20179;-43
2023/01/19 02:37:41;;;;;;;11.98;9.10;;;;;;;;;;5051976;28;20619;-44
2023/01/19 02:40:11;;;;;;;13.48;9.57;;;;;;;;;;5048154;28;20164;-45
2023/01/19 02:42:45;;;;;;;9.80;6.43;;;;;;;;;;5051468;28;20193;-42
2023/01/19 02:45:16;;;;;;;13.40;8.35;;;;;;;;;;5048444;28;20168;-44
2023/01/19 02:47:43;;;;;;;13.27;9.32;;;;;;;;;;5046616;28;20596;-44
2023/01/19 02:50:28;;;;;;;13.68;10.10;;;;;;;;;;5051398;28;20683;-44
2023/01/19 02:52:59;;;;;;;13.68;9.00;;;;;;;;;;5051509;28;20201;-44
2023/01/19 02:55:27;;;;;;;17.08;8.50;;;;;;;;;;5049870;28;20293;-42
2023/01/19 02:57:56;;;;;;;12.52;8.52;;;;;;;;;;5051433;28;20277;-43
2023/01/19 03:00:39;;;;;;;14.65;9.40;;;;;;;;;;5049766;28;20183;-44
2023/01/19 03:03:11;;;;;;;11.73;8.32;;;;;;;;;;5050770;28;20263;-45
2023/01/19 03:05:37;;;;;;;17.92;8.38;;;;;;;;;;5051710;28;20177;-43
2023/01/19 03:08:03;;;;;;;10.37;7.13;;;;;;;;;;5051458;28;20258;-43
2023/01/19 03:10:44;;;;;;;15.23;8.10;;;;;;;;;;5051317;28;20821;-43
2023/01/19 03:13:14;;;;;;;13.38;8.45;;;;;;;;;;5046776;28;20448;-42
2023/01/19 03:15:40;;;;;;;17.83;8.52;;;;;;;;;;5045548;28;20665;-44
2023/01/19 03:18:08;;;;;;;9.07;7.63;;;;;;;;;;5049495;28;20206;-45
2023/01/19 03:20:33;;;;;;;11.50;7.90;;;;;;;;;;5049388;28;20500;-47
2023/01/19 03:23:01;;;;;;;12.83;8.27;;;;;;;;;;5049334;28;20655;-47
2023/01/19 03:25:30;;;;;;;13.70;8.95;;;;;;;;;;5048928;28;20401;-50
2023/01/19 03:27:57;;;;;;;13.73;9.57;;;;;;;;;;5050031;28;20546;-45
2023/01/19 03:30:28;;;;;;;15.98;8.90;;;;;;;;;;5051047;28;20186;-44
2023/01/19 03:32:56;;;;;;;10.85;8.35;;;;;;;;;;5044334;28;20549;-43
2023/01/19 03:35:23;;;;;;;15.40;8.27;;;;;;;;;;5051335;28;20163;-43
2023/01/19 03:37:52;;;;;;;10.57;8.40;;;;;;;;;;5051357;28;20662;-44
2023/01/19 03:40:18;;;;;;;11.70;8.52;;;;;;;;;;5049170;28;20212;-43
2023/01/19 03:42:44;;;;;;;14.18;8.65;;;;;;;;;;5054687;28;20195;-43
2023/01/19 03:45:11;;;;;;;10.52;8.43;;;;;;;;;;5053288;28;20167;-43
2023/01/19 03:47:37;;;;;;;17.58;8.80;;;;;;;;;;5051118;28;20167;-43
2023/01/19 03:50:05;;;;;;;10.40;7.28;;;;;;;;;;5055020;28;20186;-43
2023/01/19 03:52:32;;;;;;;13.15;8.00;;;;;;;;;;5054793;28;20537;-43
2023/01/19 03:54:59;;;;;;;8.95;7.07;;;;;;;;;;5051436;28;20261;-46
2023/01/19 03:57:25;;;;;;;13.00;8.05;;;;;;;;;;5049858;28;20235;-43
2023/01/19 03:59:52;;;;;;;15.90;7.15;;;;;;;;;;5055073;28;20230;-43
2023/01/19 04:02:18;;;;;;;12.70;7.97;;;;;;;;;;5049697;28;20241;-43
2023/01/19 04:04:44;;;;;;;13.48;8.60;;;;;;;;;;5050148;28;20549;-43
2023/01/19 04:07:10;;;;;;;10.20;6.67;;;;;;;;;;5054902;28;20163;-43
2023/01/19 04:09:36;;;;;;;12.65;7.90;;;;;;;;;;5055136;28;20408;-43
2023/01/19 04:12:02;;;;;;;10.97;7.77;;;;;;;;;;5049440;28;20173;-43
2023/01/19 04:14:29;;;;;;;8.05;6.85;;;;;;;;;;5054622;28;20433;-43
2023/01/19 04:16:55;;;;;;;14.27;9.20;;;;;;;;;;5054442;28;20171;-43
2023/01/19 04:19:20;;;;;;;11.73;8.60;;;;;;;;;;5054565;28;20551;-43
2023/01/19 04:21:50;;;;;;;11.23;9.10;;;;;;;;;;5051353;28;20414;-43
2023/01/19 04:24:16;;;;;;;17.20;8.88;;;;;;;;;;5054192;28;20813;-43
2023/01/19 04:26:42;;;;;;;12.43;8.75;;;;;;;;;;5054236;28;20166;-46
2023/01/19 04:29:09;;;;;;;17.63;8.68;;;;;;;;;;5047941;28;20576;-45
2023/01/19 04:31:35;;;;;;;13.50;7.88;;;;;;;;;;5054253;28;20171;-47
2023/01/19 04:34:02;;;;;;;13.43;9.18;;;;;;;;;;5053957;28;20260;-45
2023/01/19 04:36:27;;;;;;;11.23;7.93;;;;;;;;;;5051135;28;20175;-43
2023/01/19 04:38:54;;;;;;;10.00;7.43;;;;;;;;;;5053918;28;20205;-44
2023/01/19 04:41:20;;;;;;;13.07;9.45;;;;;;;;;;5050581;28;20435;-44
2023/01/19 04:43:46;;;;;;;11.77;8.90;;;;;;;;;;5051048;28;20270;-43
2023/01/19 04:46:13;;;;;;;10.13;7.82;;;;;;;;;;5054149;28;20160;-43
2023/01/19 04:48:39;;;;;;;20.42;9.68;;;;;;;;;;5053939;28;20186;-42
2023/01/19 04:51:05;;;;;;;14.43;10.00;;;;;;;;;;5050845;28;20194;-42
2023/01/19 04:53:31;;;;;;;14.23;10.68;;;;;;;;;;5052863;28;20859;-43
2023/01/19 04:55:59;;;;;;;9.97;8.57;;;;;;;;;;5053667;28;20195;-42
2023/01/19 04:58:25;;;;;;;15.23;9.77;;;;;;;;;;5048119;28;20869;-43
2023/01/19 05:00:52;;;;;;;16.55;10.13;;;;;;;;;;5050352;28;20237;-43
2023/01/19 05:03:18;;;;;;;13.15;9.57;;;;;;;;;;5053710;28;20625;-43
2023/01/19 05:05:44;;;;;;;13.43;9.07;;;;;;;;;;5053683;28;20189;-43
2023/01/19 05:08:10;;;;;;;14.27;9.38;;;;;;;;;;5049001;28;20191;-42
2023/01/19 05:10:36;;;;;;;19.17;11.27;;;;;;;;;;5053529;28;20271;-44
2023/01/19 05:13:03;;;;;;;14.88;10.85;;;;;;;;;;5045557;28;20433;-44
2023/01/19 05:15:29;;;;;;;13.93;8.85;;;;;;;;;;5052131;28;20177;-43
2023/01/19 05:17:56;;;;;;;18.23;11.60;;;;;;;;;;5053459;28;20282;-43
2023/01/19 05:20:22;;;;;;;16.30;10.23;;;;;;;;;;5051358;28;20769;-44
2023/01/19 05:22:49;;;;;;;13.73;9.57;;;;;;;;;;5050560;28;20179;-45
2023/01/19 05:25:15;;;;;;;19.23;11.07;;;;;;;;;;5053407;28;20716;-43
2023/01/19 05:27:41;;;;;;;9.95;7.50;;;;;;;;;;5045260;28;20198;-48
2023/01/19 05:30:07;;;;;;;14.93;9.80;;;;;;;;;;5052096;28;20631;-43
2023/01/19 05:32:33;;;;;;;12.18;9.27;;;;;;;;;;5052992;28;20511;-43
2023/01/19 05:34:59;;;;;;;14.13;9.53;;;;;;;;;;5048722;28;20656;-44
2023/01/19 05:37:25;;;;;;;16.25;9.65;;;;;;;;;;5052805;28;20464;-45
2023/01/19 05:39:52;;;;;;;13.25;8.95;;;;;;;;;;5052138;28;20548;-47
2023/01/19 05:42:18;;;;;;;14.55;9.52;;;;;;;;;;5046680;28;20246;-45
2023/01/19 05:44:44;;;;;;;23.03;9.27;;;;;;;;;;5051865;28;20234;-47
2023/01/19 05:47:10;;;;;;;14.10;8.97;;;;;;;;;;5052904;28;20488;-43
2023/01/19 05:49:36;;;;;;;19.92;9.00;;;;;;;;;;5052569;28;20417;-47
2023/01/19 05:52:02;;;;;;;14.35;7.72;;;;;;;;;;5046438;28;20273;-48
2023/01/19 05:54:28;;;;;;;13.20;10.43;;;;;;;;;;5052691;28;20277;-44
2023/01/19 05:56:54;;;;;;;17.80;9.73;;;;;;;;;;5051394;28;20422;-44
2023/01/19 05:59:22;;;;;;;12.57;8.73;;;;;;;;;;5052632;28;20493;-44
2023/01/19 06:01:49;;;;;;;14.15;9.05;;;;;;;;;;5050236;28;20405;-44
2023/01/19 06:04:15;;;;;;;12.70;8.15;;;;;;;;;;5046834;28;20194;-48
2023/01/19 06:06:41;;;;;;;10.27;8.17;;;;;;;;;;5052400;28;20185;-43
2023/01/19 06:09:07;;;;;;;14.20;9.35;;;;;;;;;;5036751;28;20409;-44
2023/01/19 06:11:33;;;;;;;11.97;8.10;;;;;;;;;;5051199;28;20179;-44
2023/01/19 06:13:59;;;;;;;10.93;7.10;;;;;;;;;;5051471;28;20469;-45
2023/01/19 06:16:25;;;;;;;12.10;7.60;;;;;;;;;;5049602;28;20493;-44
2023/01/19 06:18:51;;;;;;;11.03;7.03;;;;;;;;;;5049976;28;20818;-44
2023/01/19 06:21:18;;;;;;;9.80;7.85;;;;;;;;;;5051908;28;20406;-43
2023/01/19 06:23:44;;;;;;;9.20;6.70;;;;;;;;;;5044226;28;20701;-45
2023/01/19 06:26:10;;;;;;;7.90;6.10;;;;;;;;;;5050904;28;20183;-45
2023/01/19 06:28:36;;;;;;;7.70;5.60;;;;;;;;;;5051441;28;20186;-46
2023/01/19 06:31:02;;;;;;;6.20;5.03;;;;;;;;;;5047508;28;20195;-42
2023/01/19 06:33:28;;;;;;;9.05;6.50;;;;;;;;;;5051471;28;20495;-43
2023/01/19 06:35:55;;;;;;;7.93;5.82;;;;;;;;;;5051032;28;20205;-42
2023/01/19 06:38:21;;;;;;;8.73;6.47;;;;;;;;;;5045622;28;20195;-42
2023/01/19 06:40:54;;;;;;;6.50;5.40;;;;;;;;;;5050651;28;20180;-42
2023/01/19 06:43:20;;;;;;;8.23;5.85;;;;;;;;;;5050877;28;20197;-45
2023/01/19 06:45:47;;;;;;;7.55;5.30;;;;;;;;;;5046407;28;20224;-44
2023/01/19 06:48:13;;;;;;;6.35;5.65;;;;;;;;;;5049684;28;20206;-42
2023/01/19 06:50:40;;;;;;;6.25;5.18;;;;;;;;;;5052428;28;20642;-43
2023/01/19 06:53:06;;;;;;;6.50;5.70;;;;;;;;;;5050150;28;20203;-42
2023/01/19 06:55:34;;;;;;;6.80;5.57;;;;;;;;;;5050295;28;20191;-41
2023/01/19 06:58:00;;;;;;;5.75;5.00;;;;;;;;;;5051029;28;20457;-42
2023/01/19 07:00:26;;;;;;;5.55;4.85;;;;;;;;;;5045198;28;20198;-42
2023/01/19 07:02:52;;;;;;;7.45;5.80;;;;;;;;;;5050565;28;20556;-41
2023/01/19 07:05:18;;;;;;;8.95;6.72;;;;;;;;;;5047107;28;20408;-42
2023/01/19 07:07:44;;;;;;;9.43;6.97;;;;;;;;;;5050093;28;20182;-43
2023/01/19 07:10:11;;;;;;;5.47;4.97;;;;;;;;;;5048339;28;20699;-42
2023/01/19 07:12:38;;;;;;;5.65;4.95;;;;;;;;;;5050721;28;20553;-42
2023/01/19 07:15:04;;;;;;;9.80;5.43;;;;;;;;;;5049466;28;20593;-42
2023/01/19 07:17:30;;;;;;;6.72;5.47;;;;;;;;;;5046036;28;20207;-46
2023/01/19 07:19:56;;;;;;;8.20;6.07;;;;;;;;;;5047906;28;20171;-43
2023/01/19 07:22:22;;;;;;;9.20;6.40;;;;;;;;;;5044958;28;20409;-42
2023/01/19 07:24:48;;;;;;;6.70;5.60;;;;;;;;;;5049701;28;20402;-42
2023/01/19 07:27:15;;;;;;;7.40;5.63;;;;;;;;;;5050817;28;20551;-43
2023/01/19 07:29:41;;;;;;;8.70;5.72;;;;;;;;;;5050903;28;20397;-43
2023/01/19 07:32:07;;;;;;;5.80;4.75;;;;;;;;;;5036643;28;20173;-43
2023/01/19 07:34:33;;;;;;;5.37;4.83;;;;;;;;;;5050733;28;20191;-43
2023/01/19 07:36:59;;;;;;;6.15;4.97;;;;;;;;;;5050662;28;20436;-43
2023/01/19 07:39:25;;;;;;;6.18;5.57;;;;;;;;;;5050254;28;20195;-44
2023/01/19 07:41:51;;;;;;;5.97;4.60;;;;;;;;;;5050841;28;20235;-43
2023/01/19 07:44:17;;;;;;;7.25;5.72;;;;;;;;;;5050354;28;20437;-44
2023/01/19 07:46:43;;;;;;;7.05;5.75;;;;;;;;;;5044698;28;20714;-43
2023/01/19 07:49:10;;;;;;;5.45;4.95;;;;;;;;;;5050725;28;20650;-43
2023/01/19 07:51:36;;;;;;;8.50;6.50;;;;;;;;;;5050734;28;20635;-43
2023/01/19 07:54:02;;;;;;;12.07;7.50;;;;;;;;;;5047678;28;20211;-43
2023/01/19 07:56:29;;;;;;;9.77;7.07;;;;;;;;;;5050573;28;20548;-43
2023/01/19 07:58:56;;;;;;;10.23;6.53;;;;;;;;;;5050874;28;20528;-46
2023/01/19 08:01:22;;;;;;;9.27;6.72;;;;;;;;;;5044054;28;20678;-45
2023/01/19 08:03:48;;;;;;;9.98;8.07;;;;;;;;;;5049096;28;20226;-45
2023/01/19 08:06:25;;;;;;;13.55;8.63;;;;;;;;;;5049506;28;20258;-44
2023/01/19 08:08:52;;;;;;;22.88;9.30;;;;;;;;;;5049877;28;20182;-43
2023/01/19 08:11:18;;;;;;;16.48;9.90;;;;;;;;;;5045664;28;20216;-44
2023/01/19 08:13:44;;;;;;;11.82;7.75;;;;;;;;;;5034946;28;20651;-43
2023/01/19 08:16:10;;;;;;;14.90;9.23;;;;;;;;;;5042325;28;20249;-43
2023/01/19 08:18:36;;;;;;;12.00;9.02;;;;;;;;;;5049907;28;20453;-48
2023/01/19 08:21:02;;;;;;;13.73;9.90;;;;;;;;;;5049936;28;20186;-43
2023/01/19 08:23:28;;;;;;;13.15;9.93;;;;;;;;;;5050044;28;20430;-43
2023/01/19 08:25:54;;;;;;;12.03;8.40;;;;;;;;;;5045454;28;20201;-44
2023/01/19 08:28:20;;;;;;;16.10;10.53;;;;;;;;;;5052371;28;20492;-44
2023/01/19 08:30:52;;;;;;;13.70;9.02;;;;;;;;;;5045900;28;20779;-46
2023/01/19 08:33:18;;;;;;;18.63;9.65;;;;;;;;;;5047558;28;20191;-44
2023/01/19 08:35:47;;;;;;;21.30;9.70;;;;;;;;;;5047928;28;20216;-44
2023/01/19 08:38:13;;;;;;;20.20;10.10;;;;;;;;;;5053407;28;20237;-43
2023/01/19 08:40:40;;;;;;;16.90;9.30;;;;;;;;;;5053106;28;20167;-44
2023/01/19 08:43:08;;;;;;;15.68;10.82;;;;;;;;;;5050797;28;20193;-43
2023/01/19 08:45:34;;;;;;;9.95;7.72;;;;;;;;;;5046055;28;20179;-46
2023/01/19 08:48:01;;;;;;;21.50;10.65;;;;;;;;;;5053359;28;20221;-43
2023/01/19 08:50:28;;;;;;;18.08;10.00;;;;;;;;;;5053564;28;20265;-43
2023/01/19 08:52:57;;;;;;;20.20;10.43;;;;;;;;;;5049592;28;20670;-44
2023/01/19 08:55:24;;;;;;;18.70;10.43;;;;;;;;;;5050244;28;20455;-43
2023/01/19 08:57:51;;;;;;;15.40;10.15;;;;;;;;;;5051476;28;20199;-47
2023/01/19 09:00:17;;;;;;;22.30;11.45;;;;;;;;;;5053625;28;20163;-46
2023/01/19 09:02:43;;;;;;;18.35;11.70;;;;;;;;;;5053395;28;20191;-45
2023/01/19 09:05:10;;;;;;;19.97;10.67;;;;;;;;;;5051314;28;20704;-47
2023/01/19 09:07:36;;;;;;;13.90;8.68;;;;;;;;;;5053372;28;20410;-47
2023/01/19 09:10:03;;;;;;;21.97;13.20;;;;;;;;;;5048431;28;20194;-45
2023/01/19 09:12:29;;;;;;;21.25;12.30;;;;;;;;;;5047800;28;20406;-46
2023/01/19 09:14:54;;;;;;;18.47;11.73;;;;;;;;;;5051456;28;20167;-46
2023/01/19 09:17:20;;;;;;;18.63;11.97;;;;;;;;;;5053146;28;20412;-45
2023/01/19 09:19:46;;;;;;;25.27;14.07;;;;;;;;;;5053356;28;20897;-45
2023/01/19 09:22:12;;;;;;;23.37;12.90;;;;;;;;;;5049179;28;20402;-47
2023/01/19 09:24:38;;;;;;;23.13;14.90;;;;;;;;;;5053145;28;20830;-46
2023/01/19 09:27:04;;;;;;;23.80;14.75;;;;;;;;;;5046242;28;20700;-46
2023/01/19 09:29:30;;;;;;;25.27;13.90;;;;;;;;;;5052724;28;20198;-45
2023/01/19 09:31:56;;;;;;;24.55;14.25;;;;;;;;;;5052865;28;20543;-46
2023/01/19 09:34:24;;;;;;;26.83;16.73;;;;;;;;;;5052129;28;20187;-48
2023/01/19 09:36:50;;;;;;;27.25;15.75;;;;;;;;;;5047186;28;20405;-46
2023/01/19 09:39:16;;;;;;;26.25;15.63;;;;;;;;;;5052367;28;20564;-45
2023/01/19 09:41:45;;;;;;;24.43;15.60;;;;;;;;;;5051457;28;20179;-46
2023/01/19 09:44:15;;;;;;;24.02;14.80;;;;;;;;;;5049654;28;20432;-48
2023/01/19 09:46:41;;;;;;;25.02;16.73;;;;;;;;;;5052026;28;20187;-46
2023/01/19 09:49:15;;;;;;;24.80;14.82;;;;;;;;;;5044164;28;20246;-46
2023/01/19 09:51:44;;;;;;;29.08;17.48;;;;;;;;;;5052295;28;20168;-45
2023/01/19 09:54:13;;;;;;;28.55;15.02;;;;;;;;;;5052334;28;20198;-46
2023/01/19 09:56:39;;;;;;;29.88;17.38;;;;;;;;;;5051182;28;20182;-46
2023/01/19 09:59:14;;;;;;;34.08;17.85;;;;;;;;;;5051587;28;20548;-45
2023/01/19 10:01:59;;;;;;;30.83;15.77;;;;;;;;;;5045688;28;20316;-46
2023/01/19 10:04:34;;;;;;;25.80;16.45;;;;;;;;;;5051831;28;20204;-45
2023/01/19 10:07:07;;;;;;;33.92;15.70;;;;;;;;;;5051581;28;20167;-45
2023/01/19 10:09:45;;;;;;;25.08;15.70;;;;;;;;;;5044507;28;20188;-45
2023/01/19 10:12:15;;;;;;;23.02;15.02;;;;;;;;;;5038962;28;20325;-48
2023/01/19 10:15:02;;;;;;;26.55;16.45;;;;;;;;;;5052192;28;20178;-45
2023/01/19 10:17:47;;;;;;;28.15;17.25;;;;;;;;;;5052194;28;20189;-45
2023/01/19 10:20:34;;;;;;;23.73;15.38;;;;;;;;;;5048766;28;20182;-45
2023/01/19 10:23:01;;;;;;;25.35;16.40;;;;;;;;;;5031980;28;20234;-45
2023/01/19 10:25:27;;;;;;;31.38;16.85;;;;;;;;;;5032033;28;20168;-45
2023/01/19 10:27:53;;;;;;;30.00;16.90;;;;;;;;;;5031968;28;20163;-45
2023/01/19 10:30:23;;;;;;;25.03;14.30;;;;;;;;;;5032267;28;20172;-46
2023/01/19 10:32:50;;;;;;;28.48;18.30;;;;;;;;;;5031825;28;20521;-45
2023/01/19 10:35:20;;;;;;;25.58;15.80;;;;;;;;;;5032309;28;20183;-45
2023/01/19 10:37:47;;;;;;;22.48;14.60;;;;;;;;;;5031536;28;20227;-46
2023/01/19 10:40:26;;;;;;;29.05;16.25;;;;;;;;;;5031927;28;20188;-45
2023/01/19 10:42:52;;;;;;;31.27;17.15;;;;;;;;;;5031874;28;20692;-46
2023/01/19 10:45:19;;;;;;;30.58;17.50;;;;;;;;;;5031880;28;20255;-47
2023/01/19 10:47:46;;;;;;;28.23;17.00;;;;;;;;;;5031773;28;20200;-45
2023/01/19 10:50:23;;;;;;;32.38;18.95;;;;;;;;;;5033664;28;20283;-49
2023/01/19 10:52:50;;;;;;;30.02;17.95;;;;;;;;;;5051555;28;20206;-46
2023/01/19 10:55:38;;;;;;;38.63;18.65;;;;;;;;;;5051520;28;20222;-45
2023/01/19 10:58:05;;;;;;;35.65;19.27;;;;;;;;;;5035617;28;20249;-45
2023/01/19 11:00:33;;;;;;;36.25;20.50;;;;;;;;;;5045050;28;20646;-46
2023/01/19 11:02:59;;;;;;;33.90;18.10;;;;;;;;;;5050677;28;20205;-48
2023/01/19 11:05:27;;;;;;;36.92;21.00;;;;;;;;;;5045977;28;20548;-48
2023/01/19 11:07:53;;;;;;;31.63;18.13;;;;;;;;;;5049309;28;20637;-44
2023/01/19 11:10:22;;;;;;;44.40;19.83;;;;;;;;;;5051427;28;20166;-48
2023/01/19 11:13:11;;;;;;;35.28;19.67;;;;;;;;;;5051101;28;20179;-48
2023/01/19 11:15:59;;;;;;;38.08;19.83;;;;;;;;;;5047530;28;20209;-50
2023/01/19 11:18:31;;;;;;;40.67;20.83;;;;;;;;;;5045813;28;20290;-50
2023/01/19 11:21:05;;;;;;;35.00;19.65;;;;;;;;;;5051178;28;20182;-49
2023/01/19 11:23:41;;;;;;;39.65;19.77;;;;;;;;;;5047591;28;20198;-48
2023/01/19 11:26:09;;;;;;;39.00;19.35;;;;;;;;;;5046649;28;20171;-49
2023/01/19 11:28:40;;;;;;;42.53;21.70;;;;;;;;;;5045557;28;20179;-48
2023/01/19 11:31:15;;;;;;;40.88;20.23;;;;;;;;;;5051109;28;20677;-49
2023/01/19 11:33:49;;;;;;;37.65;20.92;;;;;;;;;;5051045;28;20209;-50
2023/01/19 11:36:15;;;;;;;40.45;20.05;;;;;;;;;;5044030;28;20171;-48
2023/01/19 11:38:42;;;;;;;42.63;20.97;;;;;;;;;;5047223;28;20286;-48
2023/01/19 11:41:13;;;;;;;40.28;20.88;;;;;;;;;;5042744;28;20429;-47
2023/01/19 11:43:38;;;;;;;42.40;24.60;;;;;;;;;;5050294;28;20195;-49
2023/01/19 11:46:04;;;;;;;39.97;18.73;;;;;;;;;;5050489;28;20179;-49
2023/01/19 11:48:36;;;;;;;38.08;20.85;;;;;;;;;;5050570;28;20794;-47
2023/01/19 11:51:04;;;;;;;42.85;22.90;;;;;;;;;;5048695;28;20217;-46
2023/01/19 11:53:32;;;;;;;48.45;23.33;;;;;;;;;;5050700;28;20230;-46
2023/01/19 11:56:09;;;;;;;46.55;21.90;;;;;;;;;;5050693;28;20446;-46
2023/01/19 11:58:39;;;;;;;41.65;23.35;;;;;;;;;;5044815;28;20341;-48
2023/01/19 12:01:23;;;;;;;45.35;21.13;;;;;;;;;;5050087;28;20183;-47
2023/01/19 12:04:04;;;;;;;45.30;21.42;;;;;;;;;;5053588;28;20252;-48
2023/01/19 12:06:32;;;;;;;38.63;22.27;;;;;;;;;;5054469;28;20163;-45
2023/01/19 12:09:05;;;;;;;43.22;22.25;;;;;;;;;;5054225;28;20198;-46
2023/01/19 12:11:34;;;;;;;38.38;22.05;;;;;;;;;;5044078;28;20181;-50
2023/01/19 12:14:00;;;;;;;36.30;19.52;;;;;;;;;;5051977;28;20616;-49
2023/01/19 12:16:28;;;;;;;47.17;21.55;;;;;;;;;;5039182;28;20270;-48
2023/01/19 12:19:02;;;;;;;46.25;20.55;;;;;;;;;;5032254;28;20290;-49
2023/01/19 12:21:28;;;;;;;47.33;23.13;;;;;;;;;;5034374;28;20182;-49
2023/01/19 12:24:02;;;;;;;44.63;20.60;;;;;;;;;;5034479;28;20274;-47
2023/01/19 12:26:31;;;;;;;36.80;21.02;;;;;;;;;;5034234;28;20920;-48
2023/01/19 12:29:00;;;;;;;42.80;21.70;;;;;;;;;;5034029;28;20190;-49
2023/01/19 12:31:26;;;;;;;38.33;21.40;;;;;;;;;;5034085;28;20194;-47
2023/01/19 12:33:52;;;;;;;44.70;22.17;;;;;;;;;;5033909;28;20212;-47
2023/01/19 12:36:27;;;;;;;52.35;22.67;;;;;;;;;;5050687;28;20179;-47
2023/01/19 12:39:00;;;;;;;47.95;21.02;;;;;;;;;;5053557;28;20206;-48
2023/01/19 12:41:31;;;;;;;39.72;20.90;;;;;;;;;;5047343;28;20175;-47
2023/01/19 12:44:15;;;;;;;44.72;20.65;;;;;;;;;;5053090;28;20682;-47
2023/01/19 12:46:43;;;;;;;40.70;19.77;;;;;;;;;;5038907;28;20179;-48
2023/01/19 12:49:29;;;;;;;47.30;22.55;;;;;;;;;;5040884;28;20179;-49
2023/01/19 12:52:10;;;;;;;37.08;19.00;;;;;;;;;;5032867;28;20198;-49
2023/01/19 12:54:37;;;;;;;40.63;21.40;;;;;;;;;;5053877;28;20224;-44
2023/01/19 12:57:07;;;;;;;37.90;19.85;;;;;;;;;;5053744;28;20225;-44
2023/01/19 12:59:35;;;;;;;51.17;22.67;;;;;;;;;;5053451;28;20213;-46
2023/01/19 13:02:20;;;;;;;37.33;20.35;;;;;;;;;;5053777;28;20171;-45
2023/01/19 13:05:04;;;;;;;36.60;16.95;;;;;;;;;;5054261;28;20232;-44
2023/01/19 13:07:30;;;;;;;49.28;22.08;;;;;;;;;;5053703;28;20412;-44
2023/01/19 13:09:56;;;;;;;48.50;27.30;;;;;;;;;;5053238;28;20260;-48
2023/01/19 13:12:24;;;;;;;45.03;22.03;;;;;;;;;;5039472;28;20422;-49
2023/01/19 13:14:50;;;;;;;42.92;22.02;;;;;;;;;;5033182;28;20784;-45
2023/01/19 13:17:31;;;;;;;39.25;19.17;;;;;;;;;;5050306;28;20199;-44
2023/01/19 13:20:18;;;;;;;32.10;19.75;;;;;;;;;;5053012;28;20179;-45
2023/01/19 13:22:50;;;;;;;38.42;18.70;;;;;;;;;;5046365;28;20200;-44
2023/01/19 13:25:41;;;;;;;38.92;18.60;;;;;;;;;;5053205;28;20170;-48
2023/01/19 13:28:09;;;;;;;40.60;19.90;;;;;;;;;;5040881;28;20365;-44
2023/01/19 13:30:36;;;;;;;43.38;19.50;;;;;;;;;;5052371;28;20163;-46
2023/01/19 13:33:14;;;;;;;41.13;20.05;;;;;;;;;;5052711;28;20191;-46
2023/01/19 13:35:47;;;;;;;30.73;18.52;;;;;;;;;;5049085;28;20193;-46
2023/01/19 13:38:13;;;;;;;34.85;19.63;;;;;;;;;;5051750;28;20278;-46
2023/01/19 13:40:39;;;;;;;39.78;21.33;;;;;;;;;;5043879;28;20282;-46
2023/01/19 13:43:25;;;;;;;34.85;19.05;;;;;;;;;;5050259;28;20197;-46
2023/01/19 13:45:51;;;;;;;39.22;18.02;;;;;;;;;;5051231;28;20183;-46
2023/01/19 13:48:18;;;;;;;42.65;19.27;;;;;;;;;;5053070;28;20554;-47
2023/01/19 13:50:55;;;;;;;40.15;19.67;;;;;;;;;;5052190;28;20183;-49
2023/01/19 13:53:23;;;;;;;39.55;18.95;;;;;;;;;;5052286;28;20273;-50
2023/01/19 13:56:04;;;;;;;49.42;19.98;;;;;;;;;;5050181;28;20232;-45
2023/01/19 13:58:30;;;;;;;39.67;18.60;;;;;;;;;;5052045;28;20267;-46
2023/01/19 14:00:56;;;;;;;38.58;20.25;;;;;;;;;;5052004;28;20163;-46
2023/01/19 14:03:23;;;;;;;40.70;18.95;;;;;;;;;;5051932;28;20194;-47
2023/01/19 14:05:51;;;;;;;41.95;19.15;;;;;;;;;;5051596;28;20175;-46
2023/01/19 14:08:17;;;;;;;40.28;20.05;;;;;;;;;;5045373;28;20183;-46
2023/01/19 14:10:44;;;;;;;35.15;21.20;;;;;;;;;;5051752;28;20285;-46
2023/01/19 14:13:15;;;;;;;43.85;20.48;;;;;;;;;;5041136;28;20281;-47
2023/01/19 14:15:41;;;;;;;33.70;18.77;;;;;;;;;;5038215;28;20198;-44
2023/01/19 14:18:08;;;;;;;39.10;20.58;;;;;;;;;;5042530;28;20187;-45
2023/01/19 14:20:37;;;;;;;44.08;19.83;;;;;;;;;;5050544;28;20657;-45
2023/01/19 14:23:37;;;;;;;34.13;17.95;;;;;;;;;;5019853;28;20702;-44
2023/01/19 14:26:03;;;;;;;34.67;17.60;;;;;;;;;;5030808;28;20262;-45
2023/01/19 14:28:39;;;;;;;33.03;18.65;;;;;;;;;;5049767;28;20191;-45
2023/01/19 14:31:17;;;;;;;37.28;18.08;;;;;;;;;;5051103;28;20178;-48
2023/01/19 14:33:45;;;;;;;34.58;15.65;;;;;;;;;;5051205;28;20203;-52
2023/01/19 14:36:14;;;;;;;29.15;15.00;;;;;;;;;;5051428;28;20217;-45
2023/01/19 14:38:44;;;;;;;30.95;15.02;;;;;;;;;;5051485;28;20225;-44
2023/01/19 14:41:11;;;;;;;24.60;14.40;;;;;;;;;;5048196;28;20182;-46
2023/01/19 14:43:37;;;;;;;28.15;14.63;;;;;;;;;;5050786;28;20266;-46